首页
METAR-TAF:

METAR-TAF

机场 :

Pope Air Force Base

費耶特維爾 / Pope, 北卡罗来纳州, 美国

纬度: 35-10N, 经度: 079-02W, 海拔: 61米

当前天气观测

该预报发布于41分钟前的01:20 UTC
风速3节,风向南转西南
温度 7°C
湿度 76%
气压 1024 hPa
能見度: 16.1公里
天空无云

METAR: KPOB 220120Z AUTO 20003KT 10SM CLR 07/03 A3025 RMK AO2 SLP247 $

时间: 22:01 (02:01 UTC)

预报

该预报发布于1小时和1分钟前的01:00 UTC
预报有效从22日的 01点(UTC)到 23日的 07点(UTC)
风速5节,风向多变
能见度10公里或以上
天空无云

TAF: KPOB 220100Z 2201/2307 VRB05KT 9999 SKC QNH3020INS TX19/2219Z TN02/2211Z

超过4000个机场的气象观测和天气预报(METAR&TAF报告)。

可查询的气象台以黄色和红色小点在地图上表示。

将鼠标移到小点上方,可查看气象台名称。

然后点击查看天气观测和预报。

如需切换地图:点击带黑十字的绿色按钮放大地图;点击带横线的绿色按钮缩小地图;或者点击绿色箭头查看邻近地区的地图。


METAR-TAF: